sensor_id;sensor_type;location;lat;lon;timestamp;P1;durP1;ratioP1;P2;durP2;ratioP2
3217;SDS011;1621;49.702;8.618;2022-08-19T00:02:23;20.53;;;17.03;;
3217;SDS011;1621;49.702;8.618;2022-08-19T00:04:49;20.60;;;18.40;;
3217;SDS011;1621;49.702;8.618;2022-08-19T00:07:17;20.40;;;16.80;;
3217;SDS011;1621;49.702;8.618;2022-08-19T00:09:43;19.10;;;16.40;;
3217;SDS011;1621;49.702;8.618;2022-08-19T00:12:10;20.63;;;17.57;;
3217;SDS011;1621;49.702;8.618;2022-08-19T00:14:38;18.23;;;16.33;;
3217;SDS011;1621;49.702;8.618;2022-08-19T00:17:06;18.13;;;16.23;;
3217;SDS011;1621;49.702;8.618;2022-08-19T00:19:33;19.93;;;16.77;;
3217;SDS011;1621;49.702;8.618;2022-08-19T00:21:59;18.37;;;16.37;;
3217;SDS011;1621;49.702;8.618;2022-08-19T00:24:27;18.17;;;16.03;;
3217;SDS011;1621;49.702;8.618;2022-08-19T00:26:54;18.73;;;16.73;;
3217;SDS011;1621;49.702;8.618;2022-08-19T00:29:21;18.47;;;16.20;;
3217;SDS011;1621;49.702;8.618;2022-08-19T00:31:49;18.47;;;16.47;;
3217;SDS011;1621;49.702;8.618;2022-08-19T00:34:17;18.10;;;16.20;;
3217;SDS011;1621;49.702;8.618;2022-08-19T00:36:44;22.57;;;17.47;;
3217;SDS011;1621;49.702;8.618;2022-08-19T00:39:11;19.03;;;16.43;;
3217;SDS011;1621;49.702;8.618;2022-08-19T00:41:37;18.00;;;16.07;;
3217;SDS011;1621;49.702;8.618;2022-08-19T00:44:05;19.10;;;17.20;;
3217;SDS011;1621;49.702;8.618;2022-08-19T00:46:32;18.10;;;16.10;;
3217;SDS011;1621;49.702;8.618;2022-08-19T00:49:00;19.30;;;17.10;;
3217;SDS011;1621;49.702;8.618;2022-08-19T00:51:27;18.73;;;16.77;;
3217;SDS011;1621;49.702;8.618;2022-08-19T00:53:57;18.43;;;16.20;;
3217;SDS011;1621;49.702;8.618;2022-08-19T00:56:24;18.53;;;16.53;;
3217;SDS011;1621;49.702;8.618;2022-08-19T00:58:51;22.00;;;17.63;;
3217;SDS011;1621;49.702;8.618;2022-08-19T01:01:17;19.00;;;17.10;;
3217;SDS011;1621;49.702;8.618;2022-08-19T01:03:43;20.10;;;17.03;;
3217;SDS011;1621;49.702;8.618;2022-08-19T01:06:11;21.87;;;17.90;;
3217;SDS011;1621;49.702;8.618;2022-08-19T01:08:37;20.00;;;17.87;;
3217;SDS011;1621;49.702;8.618;2022-08-19T01:11:04;19.00;;;17.00;;
3217;SDS011;1621;49.702;8.618;2022-08-19T01:13:31;19.53;;;17.43;;
3217;SDS011;1621;49.702;8.618;2022-08-19T01:15:59;18.70;;;16.40;;
3217;SDS011;1621;49.702;8.618;2022-08-19T01:18:26;19.07;;;17.00;;
3217;SDS011;1621;49.702;8.618;2022-08-19T01:20:53;17.40;;;15.60;;
3217;SDS011;1621;49.702;8.618;2022-08-19T01:23:21;19.60;;;17.13;;
3217;SDS011;1621;49.702;8.618;2022-08-19T01:26:07;18.40;;;16.60;;
3217;SDS011;1621;49.702;8.618;2022-08-19T01:28:33;19.53;;;17.53;;
3217;SDS011;1621;49.702;8.618;2022-08-19T01:31:01;19.37;;;17.30;;
3217;SDS011;1621;49.702;8.618;2022-08-19T01:33:28;20.90;;;18.20;;
3217;SDS011;1621;49.702;8.618;2022-08-19T01:36:02;20.37;;;18.17;;
3217;SDS011;1621;49.702;8.618;2022-08-19T01:38:34;19.70;;;17.60;;
3217;SDS011;1621;49.702;8.618;2022-08-19T01:41:01;19.40;;;17.30;;
3217;SDS011;1621;49.702;8.618;2022-08-19T01:43:27;21.80;;;19.23;;
3217;SDS011;1621;49.702;8.618;2022-08-19T01:45:54;20.43;;;18.23;;
3217;SDS011;1621;49.702;8.618;2022-08-19T01:48:20;22.33;;;18.27;;
3217;SDS011;1621;49.702;8.618;2022-08-19T01:50:47;19.60;;;17.50;;
3217;SDS011;1621;49.702;8.618;2022-08-19T01:53:13;21.47;;;19.23;;
3217;SDS011;1621;49.702;8.618;2022-08-19T01:55:41;20.23;;;18.00;;
3217;SDS011;1621;49.702;8.618;2022-08-19T01:58:09;19.67;;;17.40;;
3217;SDS011;1621;49.702;8.618;2022-08-19T02:00:36;20.90;;;17.73;;
3217;SDS011;1621;49.702;8.618;2022-08-19T02:03:03;21.27;;;18.60;;
3217;SDS011;1621;49.702;8.618;2022-08-19T02:05:29;21.10;;;18.30;;
3217;SDS011;1621;49.702;8.618;2022-08-19T02:07:56;19.73;;;17.30;;
3217;SDS011;1621;49.702;8.618;2022-08-19T02:10:23;21.23;;;18.93;;
3217;SDS011;1621;49.702;8.618;2022-08-19T02:12:51;19.30;;;17.20;;
3217;SDS011;1621;49.702;8.618;2022-08-19T02:15:18;19.50;;;17.40;;
3217;SDS011;1621;49.702;8.618;2022-08-19T02:17:45;23.03;;;18.90;;
3217;SDS011;1621;49.702;8.618;2022-08-19T02:20:11;21.40;;;18.80;;
3217;SDS011;1621;49.702;8.618;2022-08-19T02:22:38;20.63;;;18.40;;
3217;SDS011;1621;49.702;8.618;2022-08-19T02:25:06;20.57;;;18.27;;
3217;SDS011;1621;49.702;8.618;2022-08-19T02:27:33;20.50;;;17.17;;
3217;SDS011;1621;49.702;8.618;2022-08-19T02:30:00;20.90;;;18.70;;
3217;SDS011;1621;49.702;8.618;2022-08-19T02:32:27;18.60;;;16.60;;
3217;SDS011;1621;49.702;8.618;2022-08-19T02:34:55;22.83;;;17.13;;
3217;SDS011;1621;49.702;8.618;2022-08-19T02:37:21;19.87;;;17.77;;
3217;SDS011;1621;49.702;8.618;2022-08-19T02:40:05;19.37;;;17.30;;
3217;SDS011;1621;49.702;8.618;2022-08-19T02:42:31;19.90;;;17.80;;
3217;SDS011;1621;49.702;8.618;2022-08-19T02:44:58;19.63;;;17.57;;
3217;SDS011;1621;49.702;8.618;2022-08-19T02:47:26;19.73;;;16.80;;
3217;SDS011;1621;49.702;8.618;2022-08-19T02:49:52;18.47;;;16.47;;
3217;SDS011;1621;49.702;8.618;2022-08-19T02:52:18;19.50;;;16.90;;
3217;SDS011;1621;49.702;8.618;2022-08-19T02:54:45;18.10;;;16.20;;
3217;SDS011;1621;49.702;8.618;2022-08-19T02:57:11;19.43;;;16.20;;
3217;SDS011;1621;49.702;8.618;2022-08-19T02:59:37;20.80;;;17.20;;
3217;SDS011;1621;49.702;8.618;2022-08-19T03:02:04;18.70;;;16.37;;
3217;SDS011;1621;49.702;8.618;2022-08-19T03:04:32;18.03;;;16.17;;
3217;SDS011;1621;49.702;8.618;2022-08-19T03:06:58;19.33;;;16.83;;
3217;SDS011;1621;49.702;8.618;2022-08-19T03:09:24;21.20;;;16.83;;
3217;SDS011;1621;49.702;8.618;2022-08-19T03:11:51;21.60;;;16.93;;
3217;SDS011;1621;49.702;8.618;2022-08-19T03:14:17;21.00;;;17.47;;
3217;SDS011;1621;49.702;8.618;2022-08-19T03:16:44;18.60;;;16.60;;
3217;SDS011;1621;49.702;8.618;2022-08-19T03:19:11;19.10;;;17.10;;
3217;SDS011;1621;49.702;8.618;2022-08-19T03:21:39;19.17;;;15.93;;
3217;SDS011;1621;49.702;8.618;2022-08-19T03:24:06;18.87;;;16.03;;
3217;SDS011;1621;49.702;8.618;2022-08-19T03:26:33;17.30;;;15.50;;
3217;SDS011;1621;49.702;8.618;2022-08-19T03:29:01;18.73;;;16.73;;
3217;SDS011;1621;49.702;8.618;2022-08-19T03:31:27;17.47;;;15.53;;
3217;SDS011;1621;49.702;8.618;2022-08-19T03:33:53;20.60;;;16.67;;
3217;SDS011;1621;49.702;8.618;2022-08-19T03:36:20;19.27;;;15.57;;
3217;SDS011;1621;49.702;8.618;2022-08-19T03:38:49;18.70;;;16.57;;
3217;SDS011;1621;49.702;8.618;2022-08-19T03:41:17;17.47;;;15.33;;
3217;SDS011;1621;49.702;8.618;2022-08-19T03:43:44;19.10;;;17.00;;
3217;SDS011;1621;49.702;8.618;2022-08-19T03:46:12;17.13;;;15.20;;
3217;SDS011;1621;49.702;8.618;2022-08-19T03:48:39;18.17;;;16.20;;
3217;SDS011;1621;49.702;8.618;2022-08-19T03:51:05;18.60;;;15.73;;
3217;SDS011;1621;49.702;8.618;2022-08-19T03:53:32;17.90;;;16.00;;
3217;SDS011;1621;49.702;8.618;2022-08-19T03:56:00;19.20;;;16.57;;
3217;SDS011;1621;49.702;8.618;2022-08-19T03:58:28;18.10;;;16.10;;
3217;SDS011;1621;49.702;8.618;2022-08-19T04:00:55;18.27;;;15.40;;
3217;SDS011;1621;49.702;8.618;2022-08-19T04:03:21;18.23;;;15.30;;
3217;SDS011;1621;49.702;8.618;2022-08-19T04:05:47;18.97;;;16.10;;
3217;SDS011;1621;49.702;8.618;2022-08-19T04:08:14;18.20;;;15.47;;
3217;SDS011;1621;49.702;8.618;2022-08-19T04:10:45;17.63;;;15.83;;
3217;SDS011;1621;49.702;8.618;2022-08-19T04:13:12;22.37;;;16.10;;
3217;SDS011;1621;49.702;8.618;2022-08-19T04:15:39;18.77;;;16.40;;
3217;SDS011;1621;49.702;8.618;2022-08-19T04:18:06;16.93;;;15.13;;
3217;SDS011;1621;49.702;8.618;2022-08-19T04:20:33;17.90;;;16.00;;
3217;SDS011;1621;49.702;8.618;2022-08-19T04:22:59;17.90;;;16.00;;
3217;SDS011;1621;49.702;8.618;2022-08-19T04:25:25;17.53;;;15.63;;
3217;SDS011;1621;49.702;8.618;2022-08-19T04:27:51;17.70;;;15.50;;
3217;SDS011;1621;49.702;8.618;2022-08-19T04:30:19;17.97;;;15.30;;
3217;SDS011;1621;49.702;8.618;2022-08-19T04:32:47;17.33;;;15.50;;
3217;SDS011;1621;49.702;8.618;2022-08-19T04:35:14;18.23;;;15.53;;
3217;SDS011;1621;49.702;8.618;2022-08-19T04:37:40;17.63;;;15.83;;
3217;SDS011;1621;49.702;8.618;2022-08-19T04:40:07;17.13;;;15.10;;
3217;SDS011;1621;49.702;8.618;2022-08-19T04:42:51;17.80;;;15.57;;
3217;SDS011;1621;49.702;8.618;2022-08-19T04:45:19;17.43;;;15.40;;
3217;SDS011;1621;49.702;8.618;2022-08-19T04:47:46;16.00;;;14.30;;
3217;SDS011;1621;49.702;8.618;2022-08-19T04:50:12;21.63;;;17.07;;
3217;SDS011;1621;49.702;8.618;2022-08-19T04:52:38;20.27;;;16.00;;
3217;SDS011;1621;49.702;8.618;2022-08-19T04:55:08;18.53;;;16.43;;
3217;SDS011;1621;49.702;8.618;2022-08-19T04:57:34;18.53;;;16.33;;
3217;SDS011;1621;49.702;8.618;2022-08-19T05:00:04;17.60;;;15.70;;
3217;SDS011;1621;49.702;8.618;2022-08-19T05:02:32;21.47;;;16.87;;
3217;SDS011;1621;49.702;8.618;2022-08-19T05:04:59;19.30;;;15.90;;
3217;SDS011;1621;49.702;8.618;2022-08-19T05:07:26;20.03;;;17.13;;
3217;SDS011;1621;49.702;8.618;2022-08-19T05:09:52;21.07;;;17.07;;
3217;SDS011;1621;49.702;8.618;2022-08-19T05:12:18;17.63;;;15.77;;
3217;SDS011;1621;49.702;8.618;2022-08-19T05:14:45;20.33;;;17.03;;
3217;SDS011;1621;49.702;8.618;2022-08-19T05:17:12;18.00;;;15.97;;
3217;SDS011;1621;49.702;8.618;2022-08-19T05:19:39;18.33;;;15.20;;
3217;SDS011;1621;49.702;8.618;2022-08-19T05:22:23;18.77;;;16.63;;
3217;SDS011;1621;49.702;8.618;2022-08-19T05:25:01;20.20;;;18.00;;
3217;SDS011;1621;49.702;8.618;2022-08-19T05:27:27;20.67;;;18.40;;
3217;SDS011;1621;49.702;8.618;2022-08-19T05:29:53;25.63;;;18.97;;
3217;SDS011;1621;49.702;8.618;2022-08-19T05:32:19;20.60;;;18.00;;
3217;SDS011;1621;49.702;8.618;2022-08-19T05:34:48;22.37;;;19.00;;
3217;SDS011;1621;49.702;8.618;2022-08-19T05:37:14;21.40;;;17.67;;
3217;SDS011;1621;49.702;8.618;2022-08-19T05:39:41;19.80;;;17.07;;
3217;SDS011;1621;49.702;8.618;2022-08-19T05:42:08;18.73;;;16.60;;
3217;SDS011;1621;49.702;8.618;2022-08-19T05:44:36;21.90;;;18.53;;
3217;SDS011;1621;49.702;8.618;2022-08-19T05:47:04;21.60;;;17.83;;
3217;SDS011;1621;49.702;8.618;2022-08-19T05:49:31;20.03;;;16.60;;
3217;SDS011;1621;49.702;8.618;2022-08-19T05:51:59;20.30;;;17.10;;
3217;SDS011;1621;49.702;8.618;2022-08-19T05:54:27;23.30;;;18.27;;
3217;SDS011;1621;49.702;8.618;2022-08-19T05:56:53;21.53;;;17.97;;
3217;SDS011;1621;49.702;8.618;2022-08-19T05:59:20;18.33;;;15.10;;
3217;SDS011;1621;49.702;8.618;2022-08-19T06:01:47;18.20;;;15.63;;
3217;SDS011;1621;49.702;8.618;2022-08-19T06:04:15;18.10;;;16.20;;
3217;SDS011;1621;49.702;8.618;2022-08-19T06:06:43;20.87;;;16.73;;
3217;SDS011;1621;49.702;8.618;2022-08-19T06:09:11;21.37;;;15.70;;
3217;SDS011;1621;49.702;8.618;2022-08-19T06:11:39;17.83;;;15.30;;
3217;SDS011;1621;49.702;8.618;2022-08-19T06:14:07;20.20;;;15.80;;
3217;SDS011;1621;49.702;8.618;2022-08-19T06:16:34;18.47;;;16.47;;
3217;SDS011;1621;49.702;8.618;2022-08-19T06:19:01;16.90;;;15.10;;
3217;SDS011;1621;49.702;8.618;2022-08-19T06:21:28;17.03;;;15.20;;
3217;SDS011;1621;49.702;8.618;2022-08-19T06:23:54;20.87;;;18.23;;
3217;SDS011;1621;49.702;8.618;2022-08-19T06:26:22;20.20;;;16.40;;
3217;SDS011;1621;49.702;8.618;2022-08-19T06:28:49;20.87;;;16.63;;
3217;SDS011;1621;49.702;8.618;2022-08-19T06:31:17;18.17;;;15.87;;
3217;SDS011;1621;49.702;8.618;2022-08-19T06:33:45;19.53;;;16.10;;
3217;SDS011;1621;49.702;8.618;2022-08-19T06:36:18;21.10;;;16.23;;
3217;SDS011;1621;49.702;8.618;2022-08-19T06:38:45;18.80;;;15.23;;
3217;SDS011;1621;49.702;8.618;2022-08-19T06:41:11;19.83;;;16.77;;
3217;SDS011;1621;49.702;8.618;2022-08-19T06:43:38;20.23;;;15.87;;
3217;SDS011;1621;49.702;8.618;2022-08-19T06:46:09;18.83;;;16.83;;
3217;SDS011;1621;49.702;8.618;2022-08-19T06:48:36;18.30;;;16.40;;
3217;SDS011;1621;49.702;8.618;2022-08-19T06:51:02;20.63;;;17.00;;
3217;SDS011;1621;49.702;8.618;2022-08-19T06:53:30;22.00;;;17.63;;
3217;SDS011;1621;49.702;8.618;2022-08-19T06:55:57;21.07;;;16.43;;
3217;SDS011;1621;49.702;8.618;2022-08-19T06:58:25;17.30;;;15.53;;
3217;SDS011;1621;49.702;8.618;2022-08-19T07:00:53;19.53;;;15.67;;
3217;SDS011;1621;49.702;8.618;2022-08-19T07:03:19;18.13;;;16.13;;
3217;SDS011;1621;49.702;8.618;2022-08-19T07:05:46;17.17;;;15.10;;
3217;SDS011;1621;49.702;8.618;2022-08-19T07:08:12;18.90;;;15.30;;
3217;SDS011;1621;49.702;8.618;2022-08-19T07:10:41;18.60;;;15.83;;
3217;SDS011;1621;49.702;8.618;2022-08-19T07:13:08;17.43;;;15.30;;
3217;SDS011;1621;49.702;8.618;2022-08-19T07:15:35;17.80;;;14.97;;
3217;SDS011;1621;49.702;8.618;2022-08-19T07:18:03;14.90;;;13.03;;
3217;SDS011;1621;49.702;8.618;2022-08-19T07:20:30;16.00;;;14.30;;
3217;SDS011;1621;49.702;8.618;2022-08-19T07:22:58;17.87;;;14.90;;
3217;SDS011;1621;49.702;8.618;2022-08-19T07:25:24;18.50;;;13.97;;
3217;SDS011;1621;49.702;8.618;2022-08-19T07:27:50;15.40;;;13.70;;
3217;SDS011;1621;49.702;8.618;2022-08-19T07:30:16;16.30;;;13.93;;
3217;SDS011;1621;49.702;8.618;2022-08-19T07:32:43;17.37;;;15.53;;
3217;SDS011;1621;49.702;8.618;2022-08-19T07:35:10;17.60;;;14.00;;
3217;SDS011;1621;49.702;8.618;2022-08-19T07:37:37;14.63;;;13.00;;
3217;SDS011;1621;49.702;8.618;2022-08-19T07:40:04;15.90;;;14.20;;
3217;SDS011;1621;49.702;8.618;2022-08-19T07:42:31;17.43;;;13.37;;
3217;SDS011;1621;49.702;8.618;2022-08-19T07:44:58;19.17;;;14.40;;
3217;SDS011;1621;49.702;8.618;2022-08-19T07:47:24;22.10;;;14.10;;
3217;SDS011;1621;49.702;8.618;2022-08-19T07:49:52;13.47;;;12.03;;
3217;SDS011;1621;49.702;8.618;2022-08-19T07:52:20;19.57;;;14.23;;
3217;SDS011;1621;49.702;8.618;2022-08-19T07:54:47;14.30;;;12.80;;
3217;SDS011;1621;49.702;8.618;2022-08-19T07:57:14;14.90;;;13.30;;
3217;SDS011;1621;49.702;8.618;2022-08-19T07:59:41;13.13;;;11.73;;
3217;SDS011;1621;49.702;8.618;2022-08-19T08:02:07;13.67;;;11.33;;
3217;SDS011;1621;49.702;8.618;2022-08-19T08:04:34;12.90;;;11.07;;
3217;SDS011;1621;49.702;8.618;2022-08-19T08:07:19;12.20;;;11.00;;
3217;SDS011;1621;49.702;8.618;2022-08-19T08:10:03;12.30;;;10.33;;
3217;SDS011;1621;49.702;8.618;2022-08-19T08:12:32;12.87;;;10.80;;
3217;SDS011;1621;49.702;8.618;2022-08-19T08:15:00;11.80;;;9.57;;
3217;SDS011;1621;49.702;8.618;2022-08-19T08:17:27;14.33;;;11.03;;
3217;SDS011;1621;49.702;8.618;2022-08-19T08:19:54;11.50;;;10.30;;
3217;SDS011;1621;49.702;8.618;2022-08-19T08:22:23;15.23;;;10.33;;
3217;SDS011;1621;49.702;8.618;2022-08-19T08:25:08;10.33;;;9.23;;
3217;SDS011;1621;49.702;8.618;2022-08-19T08:27:35;19.13;;;10.43;;
3217;SDS011;1621;49.702;8.618;2022-08-19T08:30:04;12.63;;;10.47;;
3217;SDS011;1621;49.702;8.618;2022-08-19T08:32:31;13.50;;;9.13;;
3217;SDS011;1621;49.702;8.618;2022-08-19T08:34:58;10.07;;;8.70;;
3217;SDS011;1621;49.702;8.618;2022-08-19T08:37:26;10.23;;;8.53;;
3217;SDS011;1621;49.702;8.618;2022-08-19T08:39:52;12.63;;;9.27;;
3217;SDS011;1621;49.702;8.618;2022-08-19T08:42:20;10.83;;;8.60;;
3217;SDS011;1621;49.702;8.618;2022-08-19T08:44:50;17.07;;;9.40;;
3217;SDS011;1621;49.702;8.618;2022-08-19T08:47:18;10.80;;;9.10;;
3217;SDS011;1621;49.702;8.618;2022-08-19T08:49:47;11.80;;;8.87;;
3217;SDS011;1621;49.702;8.618;2022-08-19T08:52:15;10.53;;;9.40;;
3217;SDS011;1621;49.702;8.618;2022-08-19T08:54:45;11.00;;;9.00;;
3217;SDS011;1621;49.702;8.618;2022-08-19T08:57:13;9.73;;;7.60;;
3217;SDS011;1621;49.702;8.618;2022-08-19T08:59:40;11.53;;;9.50;;
3217;SDS011;1621;49.702;8.618;2022-08-19T09:02:07;13.00;;;9.70;;
3217;SDS011;1621;49.702;8.618;2022-08-19T09:04:34;11.43;;;8.93;;
3217;SDS011;1621;49.702;8.618;2022-08-19T09:07:06;11.23;;;9.60;;
3217;SDS011;1621;49.702;8.618;2022-08-19T09:09:37;9.67;;;8.00;;
3217;SDS011;1621;49.702;8.618;2022-08-19T09:12:08;9.87;;;7.27;;
3217;SDS011;1621;49.702;8.618;2022-08-19T09:14:38;8.57;;;7.40;;
3217;SDS011;1621;49.702;8.618;2022-08-19T09:17:06;10.67;;;6.40;;
3217;SDS011;1621;49.702;8.618;2022-08-19T09:19:33;7.50;;;5.87;;
3217;SDS011;1621;49.702;8.618;2022-08-19T09:22:00;8.87;;;6.73;;
3217;SDS011;1621;49.702;8.618;2022-08-19T09:24:26;10.87;;;6.70;;
3217;SDS011;1621;49.702;8.618;2022-08-19T09:26:52;7.90;;;6.27;;
3217;SDS011;1621;49.702;8.618;2022-08-19T09:29:20;10.20;;;6.87;;
3217;SDS011;1621;49.702;8.618;2022-08-19T09:31:46;12.40;;;7.00;;
3217;SDS011;1621;49.702;8.618;2022-08-19T09:34:13;8.43;;;6.50;;
3217;SDS011;1621;49.702;8.618;2022-08-19T09:36:40;7.03;;;6.27;;
3217;SDS011;1621;49.702;8.618;2022-08-19T09:39:06;8.37;;;5.90;;
3217;SDS011;1621;49.702;8.618;2022-08-19T09:41:32;8.23;;;6.50;;
3217;SDS011;1621;49.702;8.618;2022-08-19T09:43:58;8.53;;;5.70;;
3217;SDS011;1621;49.702;8.618;2022-08-19T09:46:27;8.40;;;5.80;;
3217;SDS011;1621;49.702;8.618;2022-08-19T09:48:53;7.43;;;6.13;;
3217;SDS011;1621;49.702;8.618;2022-08-19T09:51:22;8.47;;;6.53;;
3217;SDS011;1621;49.702;8.618;2022-08-19T09:53:49;9.30;;;5.70;;
3217;SDS011;1621;49.702;8.618;2022-08-19T09:56:16;6.50;;;5.90;;
3217;SDS011;1621;49.702;8.618;2022-08-19T09:58:42;7.83;;;6.13;;
3217;SDS011;1621;49.702;8.618;2022-08-19T10:01:11;6.20;;;5.43;;
3217;SDS011;1621;49.702;8.618;2022-08-19T10:03:42;9.83;;;6.40;;
3217;SDS011;1621;49.702;8.618;2022-08-19T10:06:08;6.30;;;5.60;;
3217;SDS011;1621;49.702;8.618;2022-08-19T10:08:35;8.10;;;5.93;;
3217;SDS011;1621;49.702;8.618;2022-08-19T10:11:03;8.87;;;5.50;;
3217;SDS011;1621;49.702;8.618;2022-08-19T10:13:30;12.23;;;6.20;;
3217;SDS011;1621;49.702;8.618;2022-08-19T10:16:05;11.90;;;5.30;;
3217;SDS011;1621;49.702;8.618;2022-08-19T10:18:31;12.63;;;6.20;;
3217;SDS011;1621;49.702;8.618;2022-08-19T10:21:04;8.63;;;5.70;;
3217;SDS011;1621;49.702;8.618;2022-08-19T10:23:33;13.30;;;5.67;;
3217;SDS011;1621;49.702;8.618;2022-08-19T10:26:00;8.40;;;5.90;;
3217;SDS011;1621;49.702;8.618;2022-08-19T10:28:26;9.70;;;7.47;;
3217;SDS011;1621;49.702;8.618;2022-08-19T10:30:52;7.53;;;5.53;;
3217;SDS011;1621;49.702;8.618;2022-08-19T10:33:18;7.60;;;6.03;;
3217;SDS011;1621;49.702;8.618;2022-08-19T10:35:45;6.83;;;5.90;;
3217;SDS011;1621;49.702;8.618;2022-08-19T10:38:13;7.33;;;5.77;;
3217;SDS011;1621;49.702;8.618;2022-08-19T10:40:39;8.50;;;6.57;;
3217;SDS011;1621;49.702;8.618;2022-08-19T10:43:05;6.37;;;5.63;;
3217;SDS011;1621;49.702;8.618;2022-08-19T10:45:31;6.90;;;6.20;;
3217;SDS011;1621;49.702;8.618;2022-08-19T10:47:58;7.03;;;6.10;;
3217;SDS011;1621;49.702;8.618;2022-08-19T10:50:24;8.03;;;6.40;;
3217;SDS011;1621;49.702;8.618;2022-08-19T10:53:08;8.00;;;6.47;;
3217;SDS011;1621;49.702;8.618;2022-08-19T10:55:35;6.90;;;5.87;;
3217;SDS011;1621;49.702;8.618;2022-08-19T10:58:20;8.00;;;6.77;;
3217;SDS011;1621;49.702;8.618;2022-08-19T11:00:51;7.20;;;6.40;;
3217;SDS011;1621;49.702;8.618;2022-08-19T11:03:18;8.63;;;6.33;;
3217;SDS011;1621;49.702;8.618;2022-08-19T11:05:44;10.80;;;6.33;;
3217;SDS011;1621;49.702;8.618;2022-08-19T11:08:10;9.00;;;6.73;;
3217;SDS011;1621;49.702;8.618;2022-08-19T11:10:38;9.63;;;6.73;;
3217;SDS011;1621;49.702;8.618;2022-08-19T11:13:07;15.17;;;6.73;;
3217;SDS011;1621;49.702;8.618;2022-08-19T11:15:33;10.27;;;6.27;;
3217;SDS011;1621;49.702;8.618;2022-08-19T11:17:59;8.07;;;7.10;;
3217;SDS011;1621;49.702;8.618;2022-08-19T11:20:25;10.20;;;7.00;;
3217;SDS011;1621;49.702;8.618;2022-08-19T11:22:52;7.33;;;6.53;;
3217;SDS011;1621;49.702;8.618;2022-08-19T11:25:18;8.97;;;6.20;;
3217;SDS011;1621;49.702;8.618;2022-08-19T11:27:46;6.73;;;6.10;;
3217;SDS011;1621;49.702;8.618;2022-08-19T11:30:16;6.83;;;6.13;;
3217;SDS011;1621;49.702;8.618;2022-08-19T11:32:42;7.87;;;7.17;;
3217;SDS011;1621;49.702;8.618;2022-08-19T11:35:08;8.90;;;8.00;;
3217;SDS011;1621;49.702;8.618;2022-08-19T11:37:36;10.07;;;8.70;;
3217;SDS011;1621;49.702;8.618;2022-08-19T11:40:03;10.57;;;9.20;;
3217;SDS011;1621;49.702;8.618;2022-08-19T11:42:29;12.27;;;8.60;;
3217;SDS011;1621;49.702;8.618;2022-08-19T11:45:15;8.67;;;7.87;;
3217;SDS011;1621;49.702;8.618;2022-08-19T11:47:41;12.00;;;9.60;;
3217;SDS011;1621;49.702;8.618;2022-08-19T11:50:08;11.27;;;10.10;;
3217;SDS011;1621;49.702;8.618;2022-08-19T11:52:35;12.20;;;10.00;;
3217;SDS011;1621;49.702;8.618;2022-08-19T11:55:01;12.27;;;10.17;;
3217;SDS011;1621;49.702;8.618;2022-08-19T11:57:28;11.97;;;10.57;;
3217;SDS011;1621;49.702;8.618;2022-08-19T11:59:54;12.17;;;10.97;;
3217;SDS011;1621;49.702;8.618;2022-08-19T12:02:22;13.07;;;11.77;;
3217;SDS011;1621;49.702;8.618;2022-08-19T12:04:48;16.40;;;11.87;;
3217;SDS011;1621;49.702;8.618;2022-08-19T12:07:14;13.30;;;11.90;;
3217;SDS011;1621;49.702;8.618;2022-08-19T12:09:40;12.30;;;11.00;;
3217;SDS011;1621;49.702;8.618;2022-08-19T12:12:07;12.07;;;10.77;;
3217;SDS011;1621;49.702;8.618;2022-08-19T12:14:34;11.47;;;10.27;;
3217;SDS011;1621;49.702;8.618;2022-08-19T12:17:00;11.97;;;10.77;;
3217;SDS011;1621;49.702;8.618;2022-08-19T12:19:28;11.37;;;10.27;;
3217;SDS011;1621;49.702;8.618;2022-08-19T12:21:58;11.80;;;10.60;;
3217;SDS011;1621;49.702;8.618;2022-08-19T12:24:24;12.50;;;11.30;;
3217;SDS011;1621;49.702;8.618;2022-08-19T12:26:51;11.63;;;10.57;;
3217;SDS011;1621;49.702;8.618;2022-08-19T12:29:18;11.67;;;10.47;;
3217;SDS011;1621;49.702;8.618;2022-08-19T12:31:44;10.63;;;9.53;;
3217;SDS011;1621;49.702;8.618;2022-08-19T12:34:11;8.90;;;8.07;;
3217;SDS011;1621;49.702;8.618;2022-08-19T12:36:38;9.17;;;8.23;;
3217;SDS011;1621;49.702;8.618;2022-08-19T12:39:05;11.27;;;9.00;;
3217;SDS011;1621;49.702;8.618;2022-08-19T12:41:31;8.67;;;7.80;;
3217;SDS011;1621;49.702;8.618;2022-08-19T12:43:57;8.97;;;8.07;;
3217;SDS011;1621;49.702;8.618;2022-08-19T12:46:24;9.77;;;7.73;;
3217;SDS011;1621;49.702;8.618;2022-08-19T12:48:50;8.87;;;7.67;;
3217;SDS011;1621;49.702;8.618;2022-08-19T12:51:19;8.03;;;7.23;;
3217;SDS011;1621;49.702;8.618;2022-08-19T12:53:47;11.93;;;7.23;;
3217;SDS011;1621;49.702;8.618;2022-08-19T12:56:13;7.60;;;6.80;;
3217;SDS011;1621;49.702;8.618;2022-08-19T12:58:40;7.70;;;6.20;;
3217;SDS011;1621;49.702;8.618;2022-08-19T13:01:07;7.37;;;6.60;;
3217;SDS011;1621;49.702;8.618;2022-08-19T13:03:33;6.20;;;5.30;;
3217;SDS011;1621;49.702;8.618;2022-08-19T13:06:00;14.70;;;6.07;;
3217;SDS011;1621;49.702;8.618;2022-08-19T13:08:26;8.97;;;6.47;;
3217;SDS011;1621;49.702;8.618;2022-08-19T13:10:53;8.60;;;5.63;;
3217;SDS011;1621;49.702;8.618;2022-08-19T13:13:20;7.03;;;5.57;;
3217;SDS011;1621;49.702;8.618;2022-08-19T13:15:46;5.80;;;5.20;;
3217;SDS011;1621;49.702;8.618;2022-08-19T13:18:13;7.63;;;5.80;;
3217;SDS011;1621;49.702;8.618;2022-08-19T13:20:40;5.90;;;4.83;;
3217;SDS011;1621;49.702;8.618;2022-08-19T13:23:06;6.60;;;5.10;;
3217;SDS011;1621;49.702;8.618;2022-08-19T13:25:33;8.13;;;5.47;;
3217;SDS011;1621;49.702;8.618;2022-08-19T13:28:01;6.80;;;5.40;;
3217;SDS011;1621;49.702;8.618;2022-08-19T13:30:27;5.60;;;5.10;;
3217;SDS011;1621;49.702;8.618;2022-08-19T13:33:11;6.07;;;4.87;;
3217;SDS011;1621;49.702;8.618;2022-08-19T13:35:39;6.33;;;4.73;;
3217;SDS011;1621;49.702;8.618;2022-08-19T13:38:06;5.20;;;4.67;;
3217;SDS011;1621;49.702;8.618;2022-08-19T13:40:32;11.03;;;4.90;;
3217;SDS011;1621;49.702;8.618;2022-08-19T13:42:59;6.33;;;5.30;;
3217;SDS011;1621;49.702;8.618;2022-08-19T13:45:28;7.23;;;5.30;;
3217;SDS011;1621;49.702;8.618;2022-08-19T13:47:56;7.97;;;5.90;;
3217;SDS011;1621;49.702;8.618;2022-08-19T13:50:23;5.20;;;4.70;;
3217;SDS011;1621;49.702;8.618;2022-08-19T13:52:49;6.10;;;4.87;;
3217;SDS011;1621;49.702;8.618;2022-08-19T13:55:16;5.57;;;5.00;;
3217;SDS011;1621;49.702;8.618;2022-08-19T13:57:42;5.40;;;4.90;;
3217;SDS011;1621;49.702;8.618;2022-08-19T14:00:09;5.13;;;4.63;;
3217;SDS011;1621;49.702;8.618;2022-08-19T14:02:38;5.03;;;4.63;;
3217;SDS011;1621;49.702;8.618;2022-08-19T14:05:05;23.53;;;5.47;;
3217;SDS011;1621;49.702;8.618;2022-08-19T14:07:31;5.30;;;4.77;;
3217;SDS011;1621;49.702;8.618;2022-08-19T14:09:57;5.50;;;4.93;;
3217;SDS011;1621;49.702;8.618;2022-08-19T14:12:24;5.83;;;5.23;;
3217;SDS011;1621;49.702;8.618;2022-08-19T14:14:50;5.20;;;4.70;;
3217;SDS011;1621;49.702;8.618;2022-08-19T14:17:16;6.03;;;4.90;;
3217;SDS011;1621;49.702;8.618;2022-08-19T14:19:44;10.33;;;5.20;;
3217;SDS011;1621;49.702;8.618;2022-08-19T14:22:10;6.73;;;5.83;;
3217;SDS011;1621;49.702;8.618;2022-08-19T14:24:37;7.20;;;5.50;;
3217;SDS011;1621;49.702;8.618;2022-08-19T14:27:03;6.30;;;5.00;;
3217;SDS011;1621;49.702;8.618;2022-08-19T14:29:29;6.13;;;5.40;;
3217;SDS011;1621;49.702;8.618;2022-08-19T14:31:56;7.90;;;6.10;;
3217;SDS011;1621;49.702;8.618;2022-08-19T14:34:24;7.30;;;5.90;;
3217;SDS011;1621;49.702;8.618;2022-08-19T14:36:51;6.40;;;5.80;;
3217;SDS011;1621;49.702;8.618;2022-08-19T14:39:17;8.73;;;6.23;;
3217;SDS011;1621;49.702;8.618;2022-08-19T14:41:44;6.83;;;5.20;;
3217;SDS011;1621;49.702;8.618;2022-08-19T14:44:10;8.80;;;5.27;;
3217;SDS011;1621;49.702;8.618;2022-08-19T14:46:38;5.50;;;5.00;;
3217;SDS011;1621;49.702;8.618;2022-08-19T14:49:05;5.40;;;4.90;;
3217;SDS011;1621;49.702;8.618;2022-08-19T14:51:32;7.60;;;5.67;;
3217;SDS011;1621;49.702;8.618;2022-08-19T14:54:00;6.20;;;5.43;;
3217;SDS011;1621;49.702;8.618;2022-08-19T14:56:27;10.50;;;6.13;;
3217;SDS011;1621;49.702;8.618;2022-08-19T14:58:54;6.50;;;5.40;;
3217;SDS011;1621;49.702;8.618;2022-08-19T15:01:21;5.53;;;5.00;;